Time;durP1;ratioP1;P1;durP2;ratioP2;P2;SDS_P1;SDS_P2;PMS_P1;PMS_P2;Temp;Humidity;BMP_temperature;BMP_pressure;BME280_temperature;BME280_humidity;BME280_pressure;Samples;Min_cycle;Max_cycle;Signal;HPM_P1;HPM_P2
2023/12/30 00:00:05;;;;;;;11.20;5.28;;;;;;;3.39;95.60;99955.09;5088523;28;20051;-50
2023/12/30 00:02:47;;;;;;;8.63;3.10;;;;;;;3.41;96.11;99958.31;5060345;28;20064;-49
2023/12/30 00:05:15;;;;;;;6.80;2.15;;;;;;;3.41;95.74;99944.63;5089046;28;20055;-48
2023/12/30 00:07:44;;;;;;;7.60;2.72;;;;;;;3.43;96.15;99950.59;5089313;28;20051;-49
2023/12/30 00:10:12;;;;;;;7.50;3.90;;;;;;;3.44;96.31;99936.56;5086944;28;20580;-48
2023/12/30 00:12:40;;;;;;;19.92;6.43;;;;;;;3.44;95.94;99938.53;5089049;28;20040;-47
2023/12/30 00:15:08;;;;;;;17.30;6.55;;;;;;;3.46;95.95;99944.47;5089220;28;20047;-48
2023/12/30 00:17:35;;;;;;;15.73;7.35;;;;;;;3.47;95.94;99940.59;5088978;28;20059;-46
2023/12/30 00:20:03;;;;;;;17.55;7.30;;;;;;;3.50;96.45;99946.25;5088895;28;20040;-50
2023/12/30 00:22:31;;;;;;;11.05;4.05;;;;;;;3.48;96.51;99944.97;5088867;28;20044;-50
2023/12/30 00:24:58;;;;;;;18.02;4.32;;;;;;;3.48;96.15;99942.22;5088610;28;20059;-49
2023/12/30 00:27:26;;;;;;;10.73;2.50;;;;;;;3.46;96.29;99933.53;5088952;28;20040;-46
2023/12/30 00:29:53;;;;;;;9.02;2.78;;;;;;;3.46;96.47;99936.28;5088810;28;20051;-47
2023/12/30 00:32:20;;;;;;;11.02;3.38;;;;;;;3.47;96.43;99935.13;5088876;28;20044;-47
2023/12/30 00:34:48;;;;;;;6.10;2.42;;;;;;;3.47;96.36;99935.13;5070881;28;20066;-50
2023/12/30 00:37:21;;;;;;;5.80;2.58;;;;;;;3.45;96.49;99934.66;5070220;28;20048;-46
2023/12/30 00:39:49;;;;;;;11.43;3.03;;;;;;;3.45;96.70;99938.19;5088374;28;20047;-48
2023/12/30 00:42:16;;;;;;;7.60;2.65;;;;;;;3.47;96.36;99935.13;5088711;28;20051;-47
2023/12/30 00:44:44;;;;;;;10.23;2.13;;;;;;;3.48;96.66;99925.81;5088711;28;20048;-48
2023/12/30 00:47:11;;;;;;;8.93;2.45;;;;;;;3.50;96.73;99915.34;5088322;28;20048;-49
2023/12/30 00:49:38;;;;;;;6.93;2.72;;;;;;;3.50;96.21;99913.41;5088395;28;20051;-50
2023/12/30 00:52:06;;;;;;;7.97;2.10;;;;;;;3.51;96.31;99915.03;5087735;28;20406;-47
2023/12/30 00:54:33;;;;;;;9.68;2.00;;;;;;;3.53;96.37;99906.50;5088627;28;20047;-50
2023/12/30 00:57:10;;;;;;;7.63;2.45;;;;;;;3.55;96.70;99898.78;5088173;28;20048;-51
2023/12/30 00:59:37;;;;;;;8.00;2.30;;;;;;;3.55;96.46;99898.78;5088134;28;20059;-52
2023/12/30 01:02:05;;;;;;;7.93;3.03;;;;;;;3.56;96.43;99889.44;5087484;28;20055;-50
2023/12/30 01:04:32;;;;;;;4.97;2.40;;;;;;;3.55;96.81;99893.31;5087872;28;20052;-51
2023/12/30 01:07:01;;;;;;;11.95;3.30;;;;;;;3.54;96.97;99880.75;5088783;28;20036;-52
2023/12/30 01:09:30;;;;;;;9.80;3.53;;;;;;;3.53;96.54;99863.53;5088269;28;20586;-46
2023/12/30 01:11:57;;;;;;;13.02;4.07;;;;;;;3.55;96.57;99864.00;5088064;28;20047;-49
2023/12/30 01:14:25;;;;;;;10.63;3.78;;;;;;;3.55;96.63;99863.19;5087603;28;20509;-48
2023/12/30 01:16:52;;;;;;;13.07;3.08;;;;;;;3.55;96.90;99846.78;5087835;28;20786;-48
2023/12/30 01:19:20;;;;;;;14.88;4.53;;;;;;;3.55;96.99;99838.56;5087632;28;20048;-50
2023/12/30 01:21:48;;;;;;;18.48;4.60;;;;;;;3.56;96.76;99845.66;5088053;28;20509;-51
2023/12/30 01:24:15;;;;;;;7.18;3.63;;;;;;;3.58;97.17;99848.88;5087000;28;20036;-49
2023/12/30 01:26:43;;;;;;;11.27;4.38;;;;;;;3.58;97.08;99833.28;5087414;28;20052;-48
2023/12/30 01:29:10;;;;;;;10.52;3.95;;;;;;;3.58;96.77;99829.72;5087298;28;20036;-45
2023/12/30 01:31:38;;;;;;;11.68;3.60;;;;;;;3.58;96.81;99833.28;5087955;28;20050;-47
2023/12/30 01:34:05;;;;;;;9.25;4.57;;;;;;;3.59;96.93;99828.59;5087215;28;20067;-50
2023/12/30 01:36:32;;;;;;;6.70;2.97;;;;;;;3.58;97.30;99827.81;5087395;28;20048;-49
2023/12/30 01:39:00;;;;;;;8.18;2.95;;;;;;;3.58;96.99;99816.84;5087260;28;20059;-48
2023/12/30 01:41:28;;;;;;;12.88;4.70;;;;;;;3.60;97.34;99813.81;5087792;28;20059;-53
2023/12/30 01:43:56;;;;;;;6.90;2.90;;;;;;;3.61;97.43;99815.41;5082012;28;20048;-53
2023/12/30 01:46:23;;;;;;;13.57;5.00;;;;;;;3.60;97.34;99817.31;5079160;28;20071;-46
2023/12/30 01:48:50;;;;;;;7.47;2.70;;;;;;;3.61;97.42;99812.66;5086790;28;20387;-48
2023/12/30 01:51:18;;;;;;;6.63;2.70;;;;;;;3.62;97.54;99814.28;5087597;28;20071;-50
2023/12/30 01:53:55;;;;;;;6.68;2.47;;;;;;;3.62;97.60;99815.09;5087221;28;20054;-48
2023/12/30 01:56:22;;;;;;;5.75;2.50;;;;;;;3.63;97.46;99819.44;5068779;28;20047;-48
2023/12/30 01:58:51;;;;;;;8.77;3.20;;;;;;;3.64;97.68;99809.28;5086434;28;20040;-51
2023/12/30 02:01:22;;;;;;;11.50;2.72;;;;;;;3.62;97.63;99819.75;5087302;28;20052;-47
2023/12/30 02:03:49;;;;;;;8.32;2.83;;;;;;;3.62;97.55;99803.34;5087133;28;20041;-47
2023/12/30 02:06:17;;;;;;;14.18;3.97;;;;;;;3.63;97.82;99793.97;5086887;28;20040;-48
2023/12/30 02:08:46;;;;;;;17.38;7.07;;;;;;;3.61;97.88;99786.09;5087400;28;20051;-46
2023/12/30 02:11:15;;;;;;;17.35;6.38;;;;;;;3.61;98.00;99777.09;5086896;28;20095;-48
2023/12/30 02:13:42;;;;;;;13.77;5.80;;;;;;;3.61;97.58;99766.94;5077485;28;20504;-46
2023/12/30 02:16:10;;;;;;;22.15;5.88;;;;;;;3.64;98.00;99768.25;5084217;28;20048;-47
2023/12/30 02:18:38;;;;;;;19.27;5.95;;;;;;;3.65;97.71;99767.91;5087066;28;20048;-48
2023/12/30 02:21:06;;;;;;;15.68;4.47;;;;;;;3.66;97.84;99768.72;5086854;28;20094;-49
2023/12/30 02:23:34;;;;;;;13.32;4.07;;;;;;;3.67;98.26;99770.34;5069601;28;20048;-49
2023/12/30 02:26:01;;;;;;;12.65;4.70;;;;;;;3.69;98.02;99760.66;5062497;28;20051;-49
2023/12/30 02:28:29;;;;;;;10.90;3.47;;;;;;;3.72;97.97;99751.00;5078616;28;20064;-50
2023/12/30 02:30:56;;;;;;;10.27;3.95;;;;;;;3.72;98.28;99745.53;5086809;28;20585;-48
2023/12/30 02:33:24;;;;;;;11.85;4.60;;;;;;;3.74;97.85;99742.47;5086836;28;20052;-48
2023/12/30 02:35:51;;;;;;;11.95;3.53;;;;;;;3.73;97.91;99747.16;5088859;28;20071;-49
2023/12/30 02:38:19;;;;;;;7.30;2.65;;;;;;;3.73;97.94;99746.34;5090993;28;20413;-47
2023/12/30 02:40:46;;;;;;;8.65;2.97;;;;;;;3.75;98.08;99739.41;5089976;28;20043;-51
2023/12/30 02:43:16;;;;;;;11.80;3.47;;;;;;;3.79;97.93;99728.59;5091297;28;20047;-48
2023/12/30 02:45:44;;;;;;;9.90;2.65;;;;;;;3.81;97.80;99727.16;5090686;28;20121;-53
2023/12/30 02:48:12;;;;;;;14.75;2.83;;;;;;;3.83;97.90;99722.16;5090595;28;20046;-49
2023/12/30 02:50:39;;;;;;;11.02;2.67;;;;;;;3.86;97.84;99718.78;5090389;28;20044;-48
2023/12/30 02:53:07;;;;;;;11.63;2.17;;;;;;;3.90;97.86;99705.22;5090645;28;20048;-49
2023/12/30 02:55:34;;;;;;;8.30;2.58;;;;;;;3.93;97.51;99710.88;5089903;28;20041;-47
2023/12/30 02:58:02;;;;;;;3.53;2.15;;;;;;;3.97;97.42;99702.81;5090608;28;20048;-48
2023/12/30 03:00:54;;;;;;;4.57;0.95;;;;;;;4.00;97.69;99691.97;5178594;22;20481;-45
2023/12/30 03:03:21;;;;;;;4.55;1.35;;;;;;;4.04;97.62;99676.53;4989802;28;20384;-50
2023/12/30 03:05:48;;;;;;;8.27;1.58;;;;;;;4.08;97.83;99674.72;4990543;28;20047;-48
2023/12/30 03:08:16;;;;;;;6.40;2.47;;;;;;;4.12;97.53;99663.91;4987525;28;20058;-49
2023/12/30 03:10:43;;;;;;;5.82;2.55;;;;;;;4.17;97.57;99652.78;4971931;28;20042;-47
2023/12/30 03:13:10;;;;;;;10.63;1.65;;;;;;;4.21;97.30;99648.22;4988510;28;20553;-47
2023/12/30 03:15:38;;;;;;;8.63;2.08;;;;;;;4.25;97.53;99644.53;4990704;28;20422;-48
2023/12/30 03:18:06;;;;;;;9.02;1.83;;;;;;;4.28;97.30;99634.84;4986818;28;20137;-46
2023/12/30 03:20:34;;;;;;;4.15;1.20;;;;;;;4.31;97.45;99631.44;4965650;28;20050;-46
2023/12/30 03:23:01;;;;;;;3.17;1.48;;;;;;;4.32;97.39;99617.41;4972892;28;20039;-47
2023/12/30 03:25:28;;;;;;;4.88;1.65;;;;;;;4.34;97.23;99619.03;4982895;28;20046;-50
2023/12/30 03:27:57;;;;;;;4.95;1.02;;;;;;;4.37;97.14;99615.63;4986104;28;20825;-48
2023/12/30 03:30:25;;;;;;;6.50;2.58;;;;;;;4.38;97.05;99606.25;4971213;28;20411;-49
2023/12/30 03:32:52;;;;;;;5.38;1.27;;;;;;;4.39;97.38;99600.47;4971715;28;20046;-48
2023/12/30 03:35:19;;;;;;;8.68;2.20;;;;;;;4.40;97.24;99595.75;4970395;28;20043;-50
2023/12/30 03:37:47;;;;;;;4.18;1.08;;;;;;;4.38;97.48;99587.06;4971567;28;20050;-50
2023/12/30 03:40:22;;;;;;;7.38;1.27;;;;;;;4.38;96.96;99582.41;4971608;28;20043;-48
2023/12/30 03:42:49;;;;;;;7.15;1.00;;;;;;;4.38;97.33;99567.88;4978266;28;20053;-46
2023/12/30 03:45:16;;;;;;;3.63;0.52;;;;;;;4.38;97.14;99570.63;4989997;28;20069;-47
2023/12/30 03:47:44;;;;;;;8.45;1.23;;;;;;;4.36;97.35;99561.94;4990044;28;20050;-47
2023/12/30 03:50:11;;;;;;;3.00;0.57;;;;;;;4.35;97.59;99546.63;4990504;28;20046;-47
2023/12/30 03:52:39;;;;;;;7.80;1.10;;;;;;;4.33;97.36;99538.75;4990533;28;20049;-52
2023/12/30 03:55:07;;;;;;;6.53;0.73;;;;;;;4.30;97.48;99537.50;4987190;28;20792;-45
2023/12/30 03:57:34;;;;;;;3.15;0.93;;;;;;;4.28;97.66;99517.03;4964047;28;20046;-45
2023/12/30 04:00:03;;;;;;;5.47;1.00;;;;;;;4.26;97.82;99522.06;4973472;28;20059;-45
2023/12/30 04:02:31;;;;;;;6.25;0.65;;;;;;;4.23;98.17;99509.84;4982017;28;20058;-45
2023/12/30 04:04:58;;;;;;;3.42;0.88;;;;;;;4.22;98.22;99507.41;4989285;28;20043;-46
2023/12/30 04:07:26;;;;;;;1.40;0.40;;;;;;;4.18;98.07;99501.78;4990291;28;20515;-47
2023/12/30 04:09:53;;;;;;;4.32;0.70;;;;;;;4.17;98.65;99493.91;4989075;28;20558;-45
2023/12/30 04:12:21;;;;;;;5.40;0.88;;;;;;;4.15;98.51;99491.53;4978147;28;20050;-48
2023/12/30 04:14:48;;;;;;;6.93;0.77;;;;;;;4.13;98.57;99491.03;4976381;28;20043;-47
2023/12/30 04:17:16;;;;;;;2.75;1.20;;;;;;;4.12;98.75;99481.22;4990380;28;20065;-45
2023/12/30 04:19:44;;;;;;;2.05;0.82;;;;;;;4.11;98.83;99479.59;4989950;28;20046;-52
2023/12/30 04:22:11;;;;;;;3.38;1.58;;;;;;;4.11;99.19;99479.59;4977603;28;20429;-51
2023/12/30 04:24:38;;;;;;;8.25;1.40;;;;;;;4.13;99.02;99469.13;4977225;28;20057;-47
2023/12/30 04:27:06;;;;;;;5.45;1.05;;;;;;;4.13;99.04;99466.38;4989903;28;20050;-47
2023/12/30 04:29:33;;;;;;;4.93;0.43;;;;;;;4.13;99.37;99454.66;4982754;28;20059;-46
2023/12/30 04:32:00;;;;;;;3.78;0.50;;;;;;;4.15;99.12;99439.47;4983824;28;20073;-45
2023/12/30 04:34:28;;;;;;;6.47;2.13;;;;;;;4.16;99.23;99434.78;4989946;28;20054;-45
2023/12/30 04:36:55;;;;;;;2.22;0.98;;;;;;;4.16;99.17;99419.16;4988489;28;20130;-47
2023/12/30 04:39:22;;;;;;;3.47;0.60;;;;;;;4.17;99.57;99418.03;4970163;28;20046;-51
2023/12/30 04:41:50;;;;;;;6.43;0.98;;;;;;;4.19;99.23;99415.75;4969846;28;20046;-51
2023/12/30 04:44:17;;;;;;;5.68;0.70;;;;;;;4.21;99.34;99404.44;4989685;28;20054;-45
2023/12/30 04:46:44;;;;;;;2.90;0.40;;;;;;;4.22;99.59;99398.66;4975127;28;20402;-46
2023/12/30 04:49:13;;;;;;;3.45;0.88;;;;;;;4.25;99.88;99408.94;4970099;28;20401;-46
2023/12/30 04:51:41;;;;;;;5.05;0.73;;;;;;;4.28;100.00;99399.25;4983303;28;20065;-48
2023/12/30 04:54:08;;;;;;;1.88;0.47;;;;;;;4.32;99.76;99392.75;4969875;28;20710;-49
2023/12/30 04:56:35;;;;;;;3.03;0.75;;;;;;;4.35;100.00;99371.28;4969270;28;20133;-48
2023/12/30 04:59:03;;;;;;;3.13;0.45;;;;;;;4.37;99.86;99367.06;4977471;28;20058;-51
2023/12/30 05:01:31;;;;;;;3.97;0.68;;;;;;;4.42;100.00;99357.84;4988892;28;20058;-47
2023/12/30 05:03:58;;;;;;;2.08;0.40;;;;;;;4.46;100.00;99353.28;4989120;28;20411;-47
2023/12/30 05:06:26;;;;;;;3.20;0.63;;;;;;;4.50;100.00;99337.78;4988390;28;21527;-47
2023/12/30 05:08:53;;;;;;;2.38;0.63;;;;;;;4.52;100.00;99317.13;4988044;28;20057;-49
2023/12/30 05:11:25;;;;;;;2.47;0.60;;;;;;;4.58;100.00;99301.25;4976423;28;20054;-49
2023/12/30 05:13:52;;;;;;;4.20;0.77;;;;;;;4.60;100.00;99288.00;4988814;28;20047;-45
2023/12/30 05:16:20;;;;;;;1.90;0.60;;;;;;;4.62;100.00;99281.03;5003817;28;20050;-49
2023/12/30 05:18:48;;;;;;;1.88;0.40;;;;;;;4.66;100.00;99270.22;4988647;28;20046;-45
2023/12/30 05:21:16;;;;;;;1.90;0.28;;;;;;;4.68;100.00;99244.06;4989099;28;20039;-47
2023/12/30 05:23:44;;;;;;;3.75;0.50;;;;;;;4.72;100.00;99242.22;4988031;28;20085;-45
2023/12/30 05:26:14;;;;;;;9.82;1.13;;;;;;;4.73;100.00;99221.88;4988330;28;20400;-51
2023/12/30 05:28:42;;;;;;;6.57;0.90;;;;;;;4.77;100.00;99222.78;4988780;28;20050;-50
2023/12/30 05:31:09;;;;;;;3.45;0.47;;;;;;;4.81;100.00;99207.25;4988876;28;20823;-45
2023/12/30 05:33:37;;;;;;;2.25;0.40;;;;;;;4.85;100.00;99202.66;4988845;28;20496;-46
2023/12/30 05:36:05;;;;;;;5.05;0.70;;;;;;;4.90;100.00;99182.44;4975477;28;20047;-48
2023/12/30 05:38:33;;;;;;;5.15;0.60;;;;;;;4.93;100.00;99171.59;4987276;28;20547;-46
2023/12/30 05:41:00;;;;;;;2.38;0.85;;;;;;;4.99;100.00;99177.63;4975899;28;20049;-46
2023/12/30 05:43:28;;;;;;;5.65;0.60;;;;;;;5.02;100.00;99163.22;4988933;28;20069;-49
2023/12/30 05:45:55;;;;;;;3.85;0.95;;;;;;;5.06;100.00;99149.59;4987674;28;20035;-46
2023/12/30 05:48:23;;;;;;;3.72;1.15;;;;;;;5.09;100.00;99141.50;4987853;28;20050;-47
2023/12/30 05:50:51;;;;;;;11.68;0.95;;;;;;;5.11;100.00;99130.97;4987883;28;20046;-49
2023/12/30 05:53:18;;;;;;;7.38;1.20;;;;;;;5.12;100.00;99118.84;4988078;28;20038;-47
2023/12/30 05:55:45;;;;;;;6.38;0.95;;;;;;;5.15;100.00;99112.66;4988203;28;20042;-45
2023/12/30 05:58:15;;;;;;;6.43;1.40;;;;;;;5.18;100.00;99101.00;4988582;28;20133;-46
2023/12/30 06:00:42;;;;;;;3.80;1.02;;;;;;;5.21;100.00;99097.56;4987577;28;20054;-50
2023/12/30 06:03:09;;;;;;;9.30;1.00;;;;;;;5.26;100.00;99089.09;4987209;28;20073;-45
2023/12/30 06:05:37;;;;;;;14.85;2.80;;;;;;;5.28;100.00;99070.31;4988180;28;20042;-47
2023/12/30 06:08:05;;;;;;;7.75;0.90;;;;;;;5.35;100.00;99073.25;4988005;28;20042;-45
2023/12/30 06:10:35;;;;;;;8.15;1.75;;;;;;;5.38;100.00;99033.31;4974764;28;20057;-47
2023/12/30 06:13:03;;;;;;;12.38;1.08;;;;;;;5.41;100.00;99027.94;4991892;28;20065;-47
2023/12/30 06:15:31;;;;;;;7.80;1.05;;;;;;;5.44;100.00;99009.97;4994071;28;20042;-48
2023/12/30 06:17:58;;;;;;;12.20;1.98;;;;;;;5.49;100.00;99004.22;4994345;28;20053;-46
2023/12/30 06:20:26;;;;;;;11.45;1.40;;;;;;;5.51;100.00;98986.25;4994815;28;20154;-47
2023/12/30 06:22:53;;;;;;;8.32;1.50;;;;;;;5.57;100.00;98964.00;4994025;28;20090;-46
2023/12/30 06:25:20;;;;;;;13.15;1.90;;;;;;;5.64;100.00;98959.47;4993990;28;20519;-47
2023/12/30 06:27:51;;;;;;;11.80;2.28;;;;;;;5.69;100.00;98945.50;4994426;28;20046;-46
2023/12/30 06:30:18;;;;;;;11.23;2.13;;;;;;;5.73;100.00;98934.59;4994577;28;20050;-47
2023/12/30 06:32:47;;;;;;;16.30;1.73;;;;;;;5.78;100.00;98921.38;4994543;28;20054;-50
2023/12/30 06:35:15;;;;;;;15.32;3.08;;;;;;;5.81;100.00;98906.16;4994365;28;20775;-48
2023/12/30 06:37:42;;;;;;;14.48;3.70;;;;;;;5.85;100.00;98894.13;4993913;28;20046;-48
2023/12/30 06:40:10;;;;;;;16.02;3.00;;;;;;;5.90;100.00;98885.63;4993944;28;20047;-47
2023/12/30 06:42:38;;;;;;;15.85;2.53;;;;;;;5.97;100.00;98873.97;4975411;28;20057;-48
2023/12/30 06:45:06;;;;;;;11.75;1.67;;;;;;;6.05;100.00;98857.28;4974540;28;20050;-45
2023/12/30 06:47:33;;;;;;;10.75;1.88;;;;;;;6.12;100.00;98853.88;4975457;28;20046;-50
2023/12/30 06:50:00;;;;;;;10.60;1.77;;;;;;;6.17;100.00;98831.59;4989224;28;20520;-47
2023/12/30 06:52:28;;;;;;;7.05;1.80;;;;;;;6.22;100.00;98825.84;4993601;28;20169;-51
2023/12/30 06:54:55;;;;;;;12.77;2.20;;;;;;;6.26;100.00;98817.66;4993972;28;20042;-48
2023/12/30 06:57:41;;;;;;;8.57;1.77;;;;;;;6.33;100.00;98809.56;4982025;28;20625;-49
2023/12/30 07:00:08;;;;;;;26.00;3.63;;;;;;;6.37;100.00;98800.22;4975131;28;20047;-48
2023/12/30 07:02:36;;;;;;;19.35;2.78;;;;;;;6.44;100.00;98770.09;4973232;28;20061;-48
2023/12/30 07:05:04;;;;;;;16.60;3.13;;;;;;;6.49;100.00;98763.50;4992885;28;20468;-45
2023/12/30 07:07:31;;;;;;;21.38;2.90;;;;;;;6.51;100.00;98744.69;4994232;28;20061;-46
2023/12/30 07:09:59;;;;;;;24.17;4.60;;;;;;;6.53;100.00;98734.94;4988178;28;20081;-51
2023/12/30 07:12:26;;;;;;;23.40;4.28;;;;;;;6.57;100.00;98727.53;4986501;28;20069;-49
2023/12/30 07:14:54;;;;;;;18.88;2.50;;;;;;;6.62;100.00;98707.16;4993719;28;20768;-48
2023/12/30 07:17:21;;;;;;;26.70;3.40;;;;;;;6.63;100.00;98706.81;4981512;28;20472;-46
2023/12/30 07:19:48;;;;;;;15.07;2.88;;;;;;;6.67;100.00;98702.16;4993445;28;20064;-47
2023/12/30 07:22:19;;;;;;;17.73;2.60;;;;;;;6.74;100.00;98682.22;4977913;28;20484;-47
2023/12/30 07:24:46;;;;;;;26.10;6.78;;;;;;;6.77;100.00;98677.94;4978434;28;20049;-51
2023/12/30 07:27:14;;;;;;;10.90;2.03;;;;;;;6.81;100.00;98665.03;4990667;28;20403;-48
2023/12/30 07:29:42;;;;;;;15.15;2.40;;;;;;;6.86;100.00;98662.00;4983222;28;20043;-51
2023/12/30 07:32:09;;;;;;;17.48;2.05;;;;;;;6.90;100.00;98654.56;4985000;28;20054;-48
2023/12/30 07:34:36;;;;;;;15.90;3.13;;;;;;;6.95;100.00;98643.25;4982789;28;20424;-49
2023/12/30 07:37:04;;;;;;;22.90;2.63;;;;;;;7.00;100.00;98637.41;4972601;28;20405;-48
2023/12/30 07:39:35;;;;;;;16.00;3.47;;;;;;;7.02;100.00;98611.09;4990164;28;20062;-50
2023/12/30 07:42:03;;;;;;;16.05;1.92;;;;;;;7.09;100.00;98605.72;4990254;28;20050;-48
2023/12/30 07:44:33;;;;;;;15.98;2.85;;;;;;;7.13;100.00;98605.75;4990689;28;20774;-49
2023/12/30 07:47:01;;;;;;;12.40;1.92;;;;;;;7.17;100.00;98607.41;4989829;28;20054;-50
2023/12/30 07:49:28;;;;;;;11.85;2.35;;;;;;;7.20;100.00;98594.84;4990373;28;20077;-51
2023/12/30 07:51:56;;;;;;;19.17;3.05;;;;;;;7.22;100.00;98581.50;4989927;28;20043;-47
2023/12/30 07:54:25;;;;;;;13.32;3.78;;;;;;;7.28;100.00;98574.50;4962548;28;20043;-50
2023/12/30 07:56:52;;;;;;;8.82;1.85;;;;;;;7.32;100.00;98580.81;4974945;28;20042;-46
2023/12/30 07:59:19;;;;;;;13.80;2.22;;;;;;;7.35;100.00;98558.06;4989889;28;20039;-48
2023/12/30 08:01:47;;;;;;;18.48;3.95;;;;;;;7.40;100.00;98556.91;4989804;28;20053;-49
2023/12/30 08:04:14;;;;;;;11.70;2.00;;;;;;;7.42;100.00;98541.59;4979302;28;20046;-48
2023/12/30 08:06:42;;;;;;;15.63;2.50;;;;;;;7.46;100.00;98531.44;4988249;28;20049;-48
2023/12/30 08:09:11;;;;;;;12.68;2.80;;;;;;;7.47;100.00;98527.50;4990385;28;21234;-47
2023/12/30 08:11:38;;;;;;;18.05;3.15;;;;;;;7.48;100.00;98507.06;4990143;28;20045;-47
2023/12/30 08:14:24;;;;;;;22.67;2.35;;;;;;;7.50;100.00;98499.22;4988546;28;20043;-46
2023/12/30 08:16:52;;;;;;;15.18;2.13;;;;;;;7.53;100.00;98497.66;4970705;28;20042;-47
2023/12/30 08:19:19;;;;;;;14.07;2.60;;;;;;;7.55;100.00;98498.06;4971425;28;20059;-50
2023/12/30 08:21:47;;;;;;;7.57;2.25;;;;;;;7.57;100.00;98488.25;4970361;28;20133;-47
2023/12/30 08:24:16;;;;;;;12.15;2.90;;;;;;;7.61;100.00;98477.28;4996228;28;20049;-47
2023/12/30 08:26:44;;;;;;;11.10;2.33;;;;;;;7.60;100.00;98465.47;4971082;28;20409;-50
2023/12/30 08:29:13;;;;;;;11.18;1.88;;;;;;;7.62;100.00;98463.13;4986359;28;20053;-46
2023/12/30 08:31:47;;;;;;;7.38;1.85;;;;;;;7.64;100.00;98460.00;4989234;28;20085;-48
2023/12/30 08:34:15;;;;;;;8.45;1.10;;;;;;;7.63;100.00;98445.44;4971615;28;20614;-46
2023/12/30 08:36:43;;;;;;;14.70;4.05;;;;;;;7.65;100.00;98442.31;4970555;28;20053;-48
2023/12/30 08:39:11;;;;;;;16.67;3.92;;;;;;;7.67;100.00;98440.75;4975600;28;20046;-48
2023/12/30 08:41:41;;;;;;;9.75;3.22;;;;;;;7.72;100.00;98428.59;4989952;28;20051;-50
2023/12/30 08:44:08;;;;;;;9.30;1.30;;;;;;;7.74;100.00;98432.53;4989607;28;20065;-49
2023/12/30 08:46:36;;;;;;;3.55;1.00;;;;;;;7.76;100.00;98427.44;4976670;28;20054;-49
2023/12/30 08:49:04;;;;;;;9.15;1.02;;;;;;;7.78;100.00;98416.03;4976832;28;20062;-47
2023/12/30 08:51:36;;;;;;;7.60;1.13;;;;;;;7.76;100.00;98410.91;4989083;28;20058;-50
2023/12/30 08:54:03;;;;;;;3.50;0.80;;;;;;;7.78;100.00;98405.78;4989162;28;20058;-51
2023/12/30 08:56:33;;;;;;;3.45;1.25;;;;;;;7.78;100.00;98383.75;4989338;28;20058;-48
2023/12/30 08:59:00;;;;;;;6.35;0.80;;;;;;;7.79;100.00;98379.84;4980957;28;20051;-47
2023/12/30 09:01:28;;;;;;;2.92;0.90;;;;;;;7.81;100.00;98377.50;4982638;28;20066;-48
2023/12/30 09:03:56;;;;;;;4.47;1.05;;;;;;;7.84;100.00;98376.72;4970229;28;20528;-49
2023/12/30 09:06:24;;;;;;;2.78;1.23;;;;;;;7.87;100.00;98364.16;4984093;28;20055;-47
2023/12/30 09:08:51;;;;;;;4.40;0.80;;;;;;;7.86;100.00;98366.09;4969944;28;20050;-48
2023/12/30 09:11:19;;;;;;;8.70;1.10;;;;;;;7.88;100.00;98372.03;4983219;28;20059;-46
2023/12/30 09:13:49;;;;;;;6.30;1.05;;;;;;;7.88;100.00;98358.28;4979463;28;20061;-48
2023/12/30 09:16:16;;;;;;;4.47;0.98;;;;;;;7.88;100.00;98355.50;4988839;28;20039;-50
2023/12/30 09:18:43;;;;;;;6.82;2.42;;;;;;;7.89;100.00;98345.25;4978529;28;20054;-46
2023/12/30 09:21:12;;;;;;;4.95;0.98;;;;;;;7.89;100.00;98345.25;4973967;28;20050;-50
2023/12/30 09:23:40;;;;;;;1.85;0.75;;;;;;;7.90;100.00;98328.38;4988475;28;20687;-48
2023/12/30 09:26:08;;;;;;;5.43;1.00;;;;;;;7.89;100.00;98324.03;4975887;28;20054;-47
2023/12/30 09:28:35;;;;;;;6.72;1.13;;;;;;;7.89;100.00;98288.22;4988741;28;20042;-49
2023/12/30 09:31:03;;;;;;;7.15;1.08;;;;;;;7.91;100.00;98252.81;4970863;28;20408;-48
2023/12/30 09:33:31;;;;;;;7.88;1.75;;;;;;;7.93;100.00;98244.94;4977493;28;20062;-46
2023/12/30 09:35:58;;;;;;;6.88;0.90;;;;;;;7.97;100.00;98237.47;4987270;28;20542;-49
2023/12/30 09:38:26;;;;;;;4.82;0.70;;;;;;;8.01;100.00;98302.81;4976743;28;20047;-48
2023/12/30 09:40:54;;;;;;;5.45;0.95;;;;;;;8.00;100.00;98296.50;4974892;28;20050;-51
2023/12/30 09:43:25;;;;;;;7.72;0.98;;;;;;;8.03;100.00;98294.94;4988056;28;20053;-48
2023/12/30 09:45:55;;;;;;;4.85;0.95;;;;;;;8.06;100.00;98299.69;4987995;28;20038;-46
2023/12/30 09:48:26;;;;;;;7.90;1.10;;;;;;;8.07;100.00;98302.06;4975656;28;20061;-46
2023/12/30 09:50:55;;;;;;;6.07;1.20;;;;;;;8.08;100.00;98297.34;4979964;28;20058;-48
2023/12/30 09:53:24;;;;;;;6.35;1.00;;;;;;;8.08;100.00;98292.63;4971240;28;20098;-48
2023/12/30 09:55:52;;;;;;;2.42;0.80;;;;;;;8.06;100.00;98294.19;4987623;28;20042;-48
2023/12/30 09:58:21;;;;;;;1.30;0.32;;;;;;;8.08;100.00;98320.16;4988385;28;20057;-49
2023/12/30 10:00:48;;;;;;;5.35;0.55;;;;;;;8.13;100.00;98299.75;4987978;28;20054;-49
2023/12/30 10:03:18;;;;;;;2.13;0.63;;;;;;;8.18;100.00;98296.59;4988422;28;20042;-50
2023/12/30 10:05:46;;;;;;;3.13;0.90;;;;;;;8.24;100.00;98300.53;4987962;28;20512;-48
2023/12/30 10:08:15;;;;;;;4.72;0.85;;;;;;;8.28;100.00;98293.91;4987353;28;20065;-46
2023/12/30 10:10:43;;;;;;;4.30;0.90;;;;;;;8.31;100.00;98284.06;4955159;28;20054;-54
2023/12/30 10:13:12;;;;;;;4.78;1.00;;;;;;;8.35;100.00;98276.59;4988487;28;20050;-51
2023/12/30 10:15:42;;;;;;;6.60;1.27;;;;;;;8.37;100.00;98283.28;4976524;28;20062;-50
2023/12/30 10:18:10;;;;;;;8.32;1.00;;;;;;;8.39;100.00;98269.88;4968587;28;20408;-52
2023/12/30 10:20:41;;;;;;;5.13;1.20;;;;;;;8.42;100.00;98274.63;4969230;28;20456;-48
2023/12/30 10:23:09;;;;;;;7.35;1.60;;;;;;;8.43;100.00;98261.63;4975306;28;20047;-53
2023/12/30 10:25:37;;;;;;;8.13;1.70;;;;;;;8.45;100.00;98262.03;4987591;28;20050;-47
2023/12/30 10:28:05;;;;;;;8.57;2.33;;;;;;;8.46;100.00;98275.44;4968323;28;20047;-46
2023/12/30 10:30:32;;;;;;;9.30;1.75;;;;;;;8.48;100.00;98294.34;4982285;28;20054;-48
2023/12/30 10:33:13;;;;;;;3.88;1.13;;;;;;;8.50;100.00;98298.28;4980555;28;20441;-49
2023/12/30 10:35:42;;;;;;;3.70;1.10;;;;;;;8.54;100.00;98301.06;4968689;28;20408;-53
2023/12/30 10:38:12;;;;;;;6.10;1.40;;;;;;;8.56;100.00;98324.31;4968831;28;20047;-53
2023/12/30 10:40:40;;;;;;;6.28;1.55;;;;;;;8.58;100.00;98348.72;4972042;28;20049;-53
2023/12/30 10:43:08;;;;;;;3.63;1.00;;;;;;;8.55;100.00;98366.06;4988101;28;20047;-52
2023/12/30 10:45:37;;;;;;;6.90;0.77;;;;;;;8.46;100.00;98371.16;4987403;28;20408;-47
2023/12/30 10:48:06;;;;;;;4.10;0.80;;;;;;;8.36;100.00;98341.59;4987510;28;20535;-50
2023/12/30 10:50:38;;;;;;;3.35;1.20;;;;;;;8.28;100.00;98331.72;4982260;28;20054;-51
2023/12/30 10:53:16;;;;;;;2.05;0.52;;;;;;;8.22;100.00;98341.50;4968884;28;20045;-48
2023/12/30 10:55:53;;;;;;;2.33;0.32;;;;;;;8.17;100.00;98339.09;4976113;28;20054;-50
2023/12/30 10:58:22;;;;;;;5.03;0.65;;;;;;;8.13;100.00;98338.31;4976111;28;20064;-47
2023/12/30 11:00:57;;;;;;;2.60;0.65;;;;;;;8.10;100.00;98326.06;4971878;28;20054;-46
2023/12/30 11:03:25;;;;;;;4.10;0.85;;;;;;;8.10;100.00;98330.81;4989257;28;20042;-50
2023/12/30 11:05:58;;;;;;;3.50;1.05;;;;;;;8.08;100.00;98338.66;4979859;28;20608;-52
2023/12/30 11:08:26;;;;;;;5.05;2.25;;;;;;;8.08;100.00;98341.41;4977077;28;20049;-51
2023/12/30 11:11:04;;;;;;;6.25;1.20;;;;;;;8.06;100.00;98324.50;4991211;28;20050;-51
2023/12/30 11:13:35;;;;;;;7.40;1.45;;;;;;;8.05;100.00;98320.16;4990866;28;20046;-48
2023/12/30 11:16:13;;;;;;;3.42;1.02;;;;;;;8.05;100.00;98329.19;4976497;28;20055;-51
2023/12/30 11:18:53;;;;;;;5.60;0.85;;;;;;;8.06;100.00;98335.50;4971932;28;20412;-47
2023/12/30 11:21:50;;;;;;;6.05;1.25;;;;;;;8.06;100.00;98310.72;4989832;28;20038;-50
2023/12/30 11:24:20;;;;;;;8.02;1.42;;;;;;;8.06;100.00;98321.72;4974332;28;20775;-48
2023/12/30 11:26:48;;;;;;;5.95;1.50;;;;;;;8.08;100.00;98319.38;4990664;28;20054;-48
2023/12/30 11:29:25;;;;;;;6.13;0.93;;;;;;;8.08;100.00;98322.91;4990830;28;20786;-49
2023/12/30 11:31:58;;;;;;;9.80;3.17;;;;;;;8.09;100.00;98299.72;4990886;28;20051;-49
2023/12/30 11:34:26;;;;;;;5.55;1.30;;;;;;;8.12;100.00;98300.91;4978185;28;20050;-47
2023/12/30 11:36:58;;;;;;;8.43;2.15;;;;;;;8.10;100.00;98283.97;4989843;28;20829;-51
2023/12/30 11:39:28;;;;;;;9.88;1.98;;;;;;;8.09;100.00;98309.94;4990900;28;20057;-47